sensor_id;sensor_type;location;lat;lon;timestamp;pressure;altitude;pressure_sealevel;temperature
17142;BMP180;32805;53.556;9.944;2023-05-27T00:01:44;102777.00;;;10.70
17142;BMP180;32805;53.556;9.944;2023-05-27T00:04:12;102768.00;;;10.70
17142;BMP180;32805;53.556;9.944;2023-05-27T00:06:40;102783.00;;;10.70
17142;BMP180;32805;53.556;9.944;2023-05-27T00:09:08;102770.00;;;10.70
17142;BMP180;32805;53.556;9.944;2023-05-27T00:11:35;102767.00;;;10.70
17142;BMP180;32805;53.556;9.944;2023-05-27T00:14:05;102770.00;;;10.60
17142;BMP180;32805;53.556;9.944;2023-05-27T00:16:32;102764.00;;;10.70
17142;BMP180;32805;53.556;9.944;2023-05-27T00:19:02;102792.00;;;10.60
17142;BMP180;32805;53.556;9.944;2023-05-27T00:21:30;102780.00;;;10.60
17142;BMP180;32805;53.556;9.944;2023-05-27T00:23:58;102783.00;;;10.60
17142;BMP180;32805;53.556;9.944;2023-05-27T00:26:25;102781.00;;;10.50
17142;BMP180;32805;53.556;9.944;2023-05-27T00:28:53;102775.00;;;10.50
17142;BMP180;32805;53.556;9.944;2023-05-27T00:31:22;102788.00;;;10.50
17142;BMP180;32805;53.556;9.944;2023-05-27T00:33:51;102779.00;;;10.50
17142;BMP180;32805;53.556;9.944;2023-05-27T00:36:19;102780.00;;;10.50
17142;BMP180;32805;53.556;9.944;2023-05-27T00:38:46;102789.00;;;10.50
17142;BMP180;32805;53.556;9.944;2023-05-27T00:41:14;102781.00;;;10.50
17142;BMP180;32805;53.556;9.944;2023-05-27T00:43:42;102786.00;;;10.40
17142;BMP180;32805;53.556;9.944;2023-05-27T00:46:10;102772.00;;;10.40
17142;BMP180;32805;53.556;9.944;2023-05-27T00:48:39;102780.00;;;10.40
17142;BMP180;32805;53.556;9.944;2023-05-27T00:51:08;102777.00;;;10.40
17142;BMP180;32805;53.556;9.944;2023-05-27T00:53:39;102775.00;;;10.40
17142;BMP180;32805;53.556;9.944;2023-05-27T00:56:08;102759.00;;;10.40
17142;BMP180;32805;53.556;9.944;2023-05-27T00:58:36;102774.00;;;10.40
17142;BMP180;32805;53.556;9.944;2023-05-27T01:01:04;102756.00;;;10.30
17142;BMP180;32805;53.556;9.944;2023-05-27T01:03:34;102755.00;;;10.20
17142;BMP180;32805;53.556;9.944;2023-05-27T01:06:10;102776.00;;;10.20
17142;BMP180;32805;53.556;9.944;2023-05-27T01:08:49;102785.00;;;10.20
17142;BMP180;32805;53.556;9.944;2023-05-27T01:11:22;102784.00;;;10.30
17142;BMP180;32805;53.556;9.944;2023-05-27T01:13:56;102774.00;;;10.20
17142;BMP180;32805;53.556;9.944;2023-05-27T01:16:27;102782.00;;;10.10
17142;BMP180;32805;53.556;9.944;2023-05-27T01:18:55;102778.00;;;10.00
17142;BMP180;32805;53.556;9.944;2023-05-27T01:21:30;102755.00;;;9.90
17142;BMP180;32805;53.556;9.944;2023-05-27T01:24:04;102773.00;;;9.90
17142;BMP180;32805;53.556;9.944;2023-05-27T01:26:32;102785.00;;;9.80
17142;BMP180;32805;53.556;9.944;2023-05-27T01:29:00;102790.00;;;9.70
17142;BMP180;32805;53.556;9.944;2023-05-27T01:31:31;102792.00;;;9.70
17142;BMP180;32805;53.556;9.944;2023-05-27T01:34:02;102790.00;;;9.80
17142;BMP180;32805;53.556;9.944;2023-05-27T01:36:35;102776.00;;;9.80
17142;BMP180;32805;53.556;9.944;2023-05-27T01:39:07;102780.00;;;9.80
17142;BMP180;32805;53.556;9.944;2023-05-27T01:41:38;102789.00;;;9.70
17142;BMP180;32805;53.556;9.944;2023-05-27T01:44:07;102768.00;;;9.70
17142;BMP180;32805;53.556;9.944;2023-05-27T01:46:36;102764.00;;;9.70
17142;BMP180;32805;53.556;9.944;2023-05-27T01:49:04;102774.00;;;9.60
17142;BMP180;32805;53.556;9.944;2023-05-27T01:51:32;102771.00;;;9.70
17142;BMP180;32805;53.556;9.944;2023-05-27T01:53:59;102763.00;;;9.70
17142;BMP180;32805;53.556;9.944;2023-05-27T01:56:28;102765.00;;;9.70
17142;BMP180;32805;53.556;9.944;2023-05-27T01:58:57;102763.00;;;9.60
17142;BMP180;32805;53.556;9.944;2023-05-27T02:01:25;102741.00;;;9.60
17142;BMP180;32805;53.556;9.944;2023-05-27T02:03:55;102763.00;;;9.50
17142;BMP180;32805;53.556;9.944;2023-05-27T02:06:23;102753.00;;;9.40
17142;BMP180;32805;53.556;9.944;2023-05-27T02:08:51;102751.00;;;9.50
17142;BMP180;32805;53.556;9.944;2023-05-27T02:11:19;102751.00;;;9.40
17142;BMP180;32805;53.556;9.944;2023-05-27T02:13:48;102747.00;;;9.50
17142;BMP180;32805;53.556;9.944;2023-05-27T02:16:18;102760.00;;;9.50
17142;BMP180;32805;53.556;9.944;2023-05-27T02:18:47;102756.00;;;9.50
17142;BMP180;32805;53.556;9.944;2023-05-27T02:21:15;102734.00;;;9.50
17142;BMP180;32805;53.556;9.944;2023-05-27T02:23:43;102696.00;;;9.50
17142;BMP180;32805;53.556;9.944;2023-05-27T02:26:11;102741.00;;;9.50
17142;BMP180;32805;53.556;9.944;2023-05-27T02:28:39;102757.00;;;9.50
17142;BMP180;32805;53.556;9.944;2023-05-27T02:31:08;102758.00;;;9.50
17142;BMP180;32805;53.556;9.944;2023-05-27T02:33:37;102734.00;;;9.50
17142;BMP180;32805;53.556;9.944;2023-05-27T02:36:05;102754.00;;;9.50
17142;BMP180;32805;53.556;9.944;2023-05-27T02:38:33;102755.00;;;9.50
17142;BMP180;32805;53.556;9.944;2023-05-27T02:41:02;102754.00;;;9.50
17142;BMP180;32805;53.556;9.944;2023-05-27T02:43:30;102750.00;;;9.50
17142;BMP180;32805;53.556;9.944;2023-05-27T02:45:58;102749.00;;;9.50
17142;BMP180;32805;53.556;9.944;2023-05-27T02:48:28;102753.00;;;9.50
17142;BMP180;32805;53.556;9.944;2023-05-27T02:50:56;102755.00;;;9.60
17142;BMP180;32805;53.556;9.944;2023-05-27T02:53:24;102734.00;;;9.40
17142;BMP180;32805;53.556;9.944;2023-05-27T02:55:51;102749.00;;;9.40
17142;BMP180;32805;53.556;9.944;2023-05-27T02:58:20;102752.00;;;9.40
17142;BMP180;32805;53.556;9.944;2023-05-27T03:00:47;102763.00;;;9.50
17142;BMP180;32805;53.556;9.944;2023-05-27T03:03:15;102748.00;;;9.50
17142;BMP180;32805;53.556;9.944;2023-05-27T03:05:46;102759.00;;;9.50
17142;BMP180;32805;53.556;9.944;2023-05-27T03:08:14;102751.00;;;9.40
17142;BMP180;32805;53.556;9.944;2023-05-27T03:10:42;102757.00;;;9.40
17142;BMP180;32805;53.556;9.944;2023-05-27T03:13:10;102755.00;;;9.40
17142;BMP180;32805;53.556;9.944;2023-05-27T03:15:38;102738.00;;;9.30
17142;BMP180;32805;53.556;9.944;2023-05-27T03:18:05;102731.00;;;9.30
17142;BMP180;32805;53.556;9.944;2023-05-27T03:20:33;102729.00;;;9.30
17142;BMP180;32805;53.556;9.944;2023-05-27T03:23:02;102743.00;;;9.30
17142;BMP180;32805;53.556;9.944;2023-05-27T03:25:30;102753.00;;;9.30
17142;BMP180;32805;53.556;9.944;2023-05-27T03:28:01;102749.00;;;9.30
17142;BMP180;32805;53.556;9.944;2023-05-27T03:30:31;102713.00;;;9.20
17142;BMP180;32805;53.556;9.944;2023-05-27T03:32:59;102747.00;;;9.10
17142;BMP180;32805;53.556;9.944;2023-05-27T03:35:33;102745.00;;;9.00
17142;BMP180;32805;53.556;9.944;2023-05-27T03:38:04;102740.00;;;9.00
17142;BMP180;32805;53.556;9.944;2023-05-27T03:40:33;102763.00;;;9.00
17142;BMP180;32805;53.556;9.944;2023-05-27T03:43:04;102748.00;;;8.90
17142;BMP180;32805;53.556;9.944;2023-05-27T03:45:32;102761.00;;;9.00
17142;BMP180;32805;53.556;9.944;2023-05-27T03:48:00;102742.00;;;9.00
17142;BMP180;32805;53.556;9.944;2023-05-27T03:50:28;102755.00;;;9.10
17142;BMP180;32805;53.556;9.944;2023-05-27T03:52:56;102757.00;;;9.10
17142;BMP180;32805;53.556;9.944;2023-05-27T03:55:27;102772.00;;;9.10
17142;BMP180;32805;53.556;9.944;2023-05-27T03:57:55;102747.00;;;9.10
17142;BMP180;32805;53.556;9.944;2023-05-27T04:00:23;102759.00;;;9.10
17142;BMP180;32805;53.556;9.944;2023-05-27T04:02:51;102756.00;;;9.20
17142;BMP180;32805;53.556;9.944;2023-05-27T04:05:19;102754.00;;;9.10
17142;BMP180;32805;53.556;9.944;2023-05-27T04:07:47;102766.00;;;9.10
17142;BMP180;32805;53.556;9.944;2023-05-27T04:10:17;102754.00;;;9.10
17142;BMP180;32805;53.556;9.944;2023-05-27T04:12:46;102761.00;;;9.10
17142;BMP180;32805;53.556;9.944;2023-05-27T04:15:14;102757.00;;;9.20
17142;BMP180;32805;53.556;9.944;2023-05-27T04:17:41;102757.00;;;9.30
17142;BMP180;32805;53.556;9.944;2023-05-27T04:20:10;102757.00;;;9.30
17142;BMP180;32805;53.556;9.944;2023-05-27T04:22:44;102735.00;;;9.40
17142;BMP180;32805;53.556;9.944;2023-05-27T04:25:12;102760.00;;;9.40
17142;BMP180;32805;53.556;9.944;2023-05-27T04:28:04;102741.00;;;9.50
17142;BMP180;32805;53.556;9.944;2023-05-27T04:30:35;102745.00;;;9.50
17142;BMP180;32805;53.556;9.944;2023-05-27T04:33:09;102755.00;;;9.40
17142;BMP180;32805;53.556;9.944;2023-05-27T04:35:38;102745.00;;;9.50
17142;BMP180;32805;53.556;9.944;2023-05-27T04:38:07;102745.00;;;9.50
17142;BMP180;32805;53.556;9.944;2023-05-27T04:40:47;102748.00;;;9.60
17142;BMP180;32805;53.556;9.944;2023-05-27T04:43:43;102744.00;;;9.60
17142;BMP180;32805;53.556;9.944;2023-05-27T04:46:14;102758.00;;;9.70
17142;BMP180;32805;53.556;9.944;2023-05-27T04:48:43;102746.00;;;9.70
17142;BMP180;32805;53.556;9.944;2023-05-27T04:51:12;102740.00;;;9.70
17142;BMP180;32805;53.556;9.944;2023-05-27T04:53:42;102732.00;;;9.80
17142;BMP180;32805;53.556;9.944;2023-05-27T04:56:10;102748.00;;;9.80
17142;BMP180;32805;53.556;9.944;2023-05-27T04:58:43;102752.00;;;9.80
17142;BMP180;32805;53.556;9.944;2023-05-27T05:01:14;102760.00;;;9.80
17142;BMP180;32805;53.556;9.944;2023-05-27T05:03:56;102748.00;;;9.90
17142;BMP180;32805;53.556;9.944;2023-05-27T05:06:58;102737.00;;;9.90
17142;BMP180;32805;53.556;9.944;2023-05-27T05:09:27;102744.00;;;10.00
17142;BMP180;32805;53.556;9.944;2023-05-27T05:11:59;102740.00;;;10.00
17142;BMP180;32805;53.556;9.944;2023-05-27T05:14:35;102736.00;;;10.10
17142;BMP180;32805;53.556;9.944;2023-05-27T05:17:03;102741.00;;;10.00
17142;BMP180;32805;53.556;9.944;2023-05-27T05:19:31;102750.00;;;10.00
17142;BMP180;32805;53.556;9.944;2023-05-27T05:21:59;102743.00;;;10.10
17142;BMP180;32805;53.556;9.944;2023-05-27T05:24:29;102715.00;;;10.10
17142;BMP180;32805;53.556;9.944;2023-05-27T05:26:57;102743.00;;;10.10
17142;BMP180;32805;53.556;9.944;2023-05-27T05:29:25;102719.00;;;10.20
17142;BMP180;32805;53.556;9.944;2023-05-27T05:31:54;102720.00;;;10.30
17142;BMP180;32805;53.556;9.944;2023-05-27T05:34:22;102717.00;;;10.30
17142;BMP180;32805;53.556;9.944;2023-05-27T05:36:50;102733.00;;;10.40
17142;BMP180;32805;53.556;9.944;2023-05-27T05:39:18;102743.00;;;10.50
17142;BMP180;32805;53.556;9.944;2023-05-27T05:41:51;102728.00;;;10.50
17142;BMP180;32805;53.556;9.944;2023-05-27T05:44:19;102731.00;;;10.50
17142;BMP180;32805;53.556;9.944;2023-05-27T05:46:49;102718.00;;;10.60
17142;BMP180;32805;53.556;9.944;2023-05-27T05:49:18;102725.00;;;10.60
17142;BMP180;32805;53.556;9.944;2023-05-27T05:51:47;102739.00;;;10.70
17142;BMP180;32805;53.556;9.944;2023-05-27T05:54:15;102711.00;;;10.70
17142;BMP180;32805;53.556;9.944;2023-05-27T05:56:48;102737.00;;;10.70
17142;BMP180;32805;53.556;9.944;2023-05-27T05:59:16;102726.00;;;10.80
17142;BMP180;32805;53.556;9.944;2023-05-27T06:01:44;102736.00;;;10.80
17142;BMP180;32805;53.556;9.944;2023-05-27T06:04:12;102737.00;;;10.90
17142;BMP180;32805;53.556;9.944;2023-05-27T06:06:44;102740.00;;;11.00
17142;BMP180;32805;53.556;9.944;2023-05-27T06:09:14;102737.00;;;11.10
17142;BMP180;32805;53.556;9.944;2023-05-27T06:11:43;102737.00;;;11.10
17142;BMP180;32805;53.556;9.944;2023-05-27T06:14:12;102732.00;;;11.20
17142;BMP180;32805;53.556;9.944;2023-05-27T06:16:40;102728.00;;;11.30
17142;BMP180;32805;53.556;9.944;2023-05-27T06:19:09;102733.00;;;11.30
17142;BMP180;32805;53.556;9.944;2023-05-27T06:21:37;102718.00;;;11.40
17142;BMP180;32805;53.556;9.944;2023-05-27T06:24:25;102731.00;;;11.50
17142;BMP180;32805;53.556;9.944;2023-05-27T06:27:04;102721.00;;;11.60
17142;BMP180;32805;53.556;9.944;2023-05-27T06:29:32;102731.00;;;11.60
17142;BMP180;32805;53.556;9.944;2023-05-27T06:32:00;102721.00;;;11.70
17142;BMP180;32805;53.556;9.944;2023-05-27T06:34:28;102725.00;;;11.70
17142;BMP180;32805;53.556;9.944;2023-05-27T06:36:56;102736.00;;;11.80
17142;BMP180;32805;53.556;9.944;2023-05-27T06:39:25;102744.00;;;11.80
17142;BMP180;32805;53.556;9.944;2023-05-27T06:41:53;102712.00;;;11.90
17142;BMP180;32805;53.556;9.944;2023-05-27T06:44:39;102733.00;;;12.00
17142;BMP180;32805;53.556;9.944;2023-05-27T06:47:12;102721.00;;;12.10
17142;BMP180;32805;53.556;9.944;2023-05-27T06:49:41;102720.00;;;12.20
17142;BMP180;32805;53.556;9.944;2023-05-27T06:52:08;102712.00;;;12.20
17142;BMP180;32805;53.556;9.944;2023-05-27T06:55:00;102712.00;;;12.30
17142;BMP180;32805;53.556;9.944;2023-05-27T06:57:48;102723.00;;;12.40
17142;BMP180;32805;53.556;9.944;2023-05-27T07:00:36;102717.00;;;12.40
17142;BMP180;32805;53.556;9.944;2023-05-27T07:03:20;102716.00;;;12.50
17142;BMP180;32805;53.556;9.944;2023-05-27T07:05:48;102713.00;;;12.50
17142;BMP180;32805;53.556;9.944;2023-05-27T07:08:16;102712.00;;;12.60
17142;BMP180;32805;53.556;9.944;2023-05-27T07:10:46;102705.00;;;12.70
17142;BMP180;32805;53.556;9.944;2023-05-27T07:13:14;102704.00;;;12.70
17142;BMP180;32805;53.556;9.944;2023-05-27T07:15:48;102704.00;;;12.80
17142;BMP180;32805;53.556;9.944;2023-05-27T07:18:17;102706.00;;;12.90
17142;BMP180;32805;53.556;9.944;2023-05-27T07:20:46;102709.00;;;13.00
17142;BMP180;32805;53.556;9.944;2023-05-27T07:23:16;102705.00;;;13.10
17142;BMP180;32805;53.556;9.944;2023-05-27T07:25:52;102700.00;;;13.20
17142;BMP180;32805;53.556;9.944;2023-05-27T07:28:22;102701.00;;;13.30
17142;BMP180;32805;53.556;9.944;2023-05-27T07:30:57;102690.00;;;13.30
17142;BMP180;32805;53.556;9.944;2023-05-27T07:33:25;102702.00;;;13.30
17142;BMP180;32805;53.556;9.944;2023-05-27T07:35:53;102700.00;;;13.40
17142;BMP180;32805;53.556;9.944;2023-05-27T07:38:21;102694.00;;;13.50
17142;BMP180;32805;53.556;9.944;2023-05-27T07:40:49;102707.00;;;13.50
17142;BMP180;32805;53.556;9.944;2023-05-27T07:43:19;102696.00;;;13.60
17142;BMP180;32805;53.556;9.944;2023-05-27T07:45:46;102685.00;;;13.70
17142;BMP180;32805;53.556;9.944;2023-05-27T07:48:14;102704.00;;;13.80
17142;BMP180;32805;53.556;9.944;2023-05-27T07:50:42;102698.00;;;13.90
17142;BMP180;32805;53.556;9.944;2023-05-27T07:53:14;102696.00;;;14.00
17142;BMP180;32805;53.556;9.944;2023-05-27T07:55:42;102692.00;;;14.10
17142;BMP180;32805;53.556;9.944;2023-05-27T07:58:10;102687.00;;;14.10
17142;BMP180;32805;53.556;9.944;2023-05-27T08:00:58;102676.00;;;14.20
17142;BMP180;32805;53.556;9.944;2023-05-27T08:03:27;102680.00;;;14.20
17142;BMP180;32805;53.556;9.944;2023-05-27T08:06:06;102681.00;;;14.30
17142;BMP180;32805;53.556;9.944;2023-05-27T08:09:02;102677.00;;;14.40
17142;BMP180;32805;53.556;9.944;2023-05-27T08:11:34;102674.00;;;14.40
17142;BMP180;32805;53.556;9.944;2023-05-27T08:14:22;102675.00;;;14.40
17142;BMP180;32805;53.556;9.944;2023-05-27T08:17:27;102666.00;;;14.50
17142;BMP180;32805;53.556;9.944;2023-05-27T08:20:13;102678.00;;;14.60
17142;BMP180;32805;53.556;9.944;2023-05-27T08:22:56;102663.00;;;14.60
17142;BMP180;32805;53.556;9.944;2023-05-27T08:25:50;102642.00;;;14.70
17142;BMP180;32805;53.556;9.944;2023-05-27T08:28:36;102663.00;;;14.70
17142;BMP180;32805;53.556;9.944;2023-05-27T08:31:23;102652.00;;;14.80
17142;BMP180;32805;53.556;9.944;2023-05-27T08:33:55;102658.00;;;15.00
17142;BMP180;32805;53.556;9.944;2023-05-27T08:36:23;102646.00;;;15.00
17142;BMP180;32805;53.556;9.944;2023-05-27T08:38:51;102643.00;;;15.10
17142;BMP180;32805;53.556;9.944;2023-05-27T08:41:26;102640.00;;;15.10
17142;BMP180;32805;53.556;9.944;2023-05-27T08:43:56;102638.00;;;15.10
17142;BMP180;32805;53.556;9.944;2023-05-27T08:46:45;102640.00;;;15.20
17142;BMP180;32805;53.556;9.944;2023-05-27T08:49:17;102633.00;;;15.30
17142;BMP180;32805;53.556;9.944;2023-05-27T08:51:46;102638.00;;;15.40
17142;BMP180;32805;53.556;9.944;2023-05-27T08:54:14;102625.00;;;15.40
17142;BMP180;32805;53.556;9.944;2023-05-27T08:56:43;102625.00;;;15.50
17142;BMP180;32805;53.556;9.944;2023-05-27T08:59:13;102604.00;;;15.60
17142;BMP180;32805;53.556;9.944;2023-05-27T09:01:42;102610.00;;;15.80
17142;BMP180;32805;53.556;9.944;2023-05-27T09:04:10;102615.00;;;15.90
17142;BMP180;32805;53.556;9.944;2023-05-27T09:06:40;102604.00;;;16.00
17142;BMP180;32805;53.556;9.944;2023-05-27T09:09:08;102617.00;;;16.10
17142;BMP180;32805;53.556;9.944;2023-05-27T09:11:38;102610.00;;;16.20
17142;BMP180;32805;53.556;9.944;2023-05-27T09:14:07;102590.00;;;16.30
17142;BMP180;32805;53.556;9.944;2023-05-27T09:16:41;102616.00;;;16.30
17142;BMP180;32805;53.556;9.944;2023-05-27T09:19:15;102606.00;;;16.30
17142;BMP180;32805;53.556;9.944;2023-05-27T09:21:44;102597.00;;;16.40
17142;BMP180;32805;53.556;9.944;2023-05-27T09:24:11;102616.00;;;16.60
17142;BMP180;32805;53.556;9.944;2023-05-27T09:26:39;102609.00;;;16.60
17142;BMP180;32805;53.556;9.944;2023-05-27T09:29:07;102594.00;;;16.70
17142;BMP180;32805;53.556;9.944;2023-05-27T09:31:38;102595.00;;;16.80
17142;BMP180;32805;53.556;9.944;2023-05-27T09:34:11;102591.00;;;17.00
17142;BMP180;32805;53.556;9.944;2023-05-27T09:36:44;102592.00;;;17.10
17142;BMP180;32805;53.556;9.944;2023-05-27T09:39:13;102575.00;;;17.30
17142;BMP180;32805;53.556;9.944;2023-05-27T09:41:41;102581.00;;;17.40
17142;BMP180;32805;53.556;9.944;2023-05-27T09:44:09;102583.00;;;17.50
17142;BMP180;32805;53.556;9.944;2023-05-27T09:46:38;102578.00;;;17.70
17142;BMP180;32805;53.556;9.944;2023-05-27T09:49:09;102579.00;;;17.80
17142;BMP180;32805;53.556;9.944;2023-05-27T09:51:38;102574.00;;;17.90
17142;BMP180;32805;53.556;9.944;2023-05-27T09:54:12;102575.00;;;17.70
17142;BMP180;32805;53.556;9.944;2023-05-27T09:56:45;102573.00;;;17.60
17142;BMP180;32805;53.556;9.944;2023-05-27T09:59:13;102573.00;;;17.60
17142;BMP180;32805;53.556;9.944;2023-05-27T10:01:44;102566.00;;;17.50
17142;BMP180;32805;53.556;9.944;2023-05-27T10:04:14;102569.00;;;17.60
17142;BMP180;32805;53.556;9.944;2023-05-27T10:06:44;102560.00;;;17.70
17142;BMP180;32805;53.556;9.944;2023-05-27T10:09:14;102567.00;;;17.80
17142;BMP180;32805;53.556;9.944;2023-05-27T10:11:44;102552.00;;;17.90
17142;BMP180;32805;53.556;9.944;2023-05-27T10:14:13;102559.00;;;18.00
17142;BMP180;32805;53.556;9.944;2023-05-27T10:16:51;102562.00;;;18.00
17142;BMP180;32805;53.556;9.944;2023-05-27T10:19:20;102561.00;;;18.10
17142;BMP180;32805;53.556;9.944;2023-05-27T10:21:48;102552.00;;;18.20
17142;BMP180;32805;53.556;9.944;2023-05-27T10:24:17;102552.00;;;18.30
17142;BMP180;32805;53.556;9.944;2023-05-27T10:26:46;102552.00;;;18.40
17142;BMP180;32805;53.556;9.944;2023-05-27T10:29:16;102549.00;;;18.50
17142;BMP180;32805;53.556;9.944;2023-05-27T10:31:45;102544.00;;;18.80
17142;BMP180;32805;53.556;9.944;2023-05-27T10:34:19;102535.00;;;18.90
17142;BMP180;32805;53.556;9.944;2023-05-27T10:36:58;102543.00;;;19.10
17142;BMP180;32805;53.556;9.944;2023-05-27T10:39:27;102540.00;;;19.30
17142;BMP180;32805;53.556;9.944;2023-05-27T10:41:56;102542.00;;;19.50
17142;BMP180;32805;53.556;9.944;2023-05-27T10:44:28;102530.00;;;19.50
17142;BMP180;32805;53.556;9.944;2023-05-27T10:46:59;102532.00;;;19.50
17142;BMP180;32805;53.556;9.944;2023-05-27T10:49:28;102537.00;;;19.70
17142;BMP180;32805;53.556;9.944;2023-05-27T10:52:05;102537.00;;;19.80
17142;BMP180;32805;53.556;9.944;2023-05-27T10:54:38;102540.00;;;19.90
17142;BMP180;32805;53.556;9.944;2023-05-27T10:57:07;102522.00;;;20.00
17142;BMP180;32805;53.556;9.944;2023-05-27T10:59:40;102524.00;;;20.20
17142;BMP180;32805;53.556;9.944;2023-05-27T11:02:08;102522.00;;;20.30
17142;BMP180;32805;53.556;9.944;2023-05-27T11:04:36;102516.00;;;20.30
17142;BMP180;32805;53.556;9.944;2023-05-27T11:07:04;102519.00;;;20.40
17142;BMP180;32805;53.556;9.944;2023-05-27T11:09:43;102516.00;;;20.70
17142;BMP180;32805;53.556;9.944;2023-05-27T11:12:13;102511.00;;;20.80
17142;BMP180;32805;53.556;9.944;2023-05-27T11:14:43;102508.00;;;20.90
17142;BMP180;32805;53.556;9.944;2023-05-27T11:17:11;102519.00;;;21.10
17142;BMP180;32805;53.556;9.944;2023-05-27T11:19:39;102512.00;;;20.90
17142;BMP180;32805;53.556;9.944;2023-05-27T11:22:08;102505.00;;;20.90
17142;BMP180;32805;53.556;9.944;2023-05-27T11:24:37;102500.00;;;21.00
17142;BMP180;32805;53.556;9.944;2023-05-27T11:27:10;102495.00;;;21.00
17142;BMP180;32805;53.556;9.944;2023-05-27T11:29:50;102505.00;;;21.20
17142;BMP180;32805;53.556;9.944;2023-05-27T11:32:18;102495.00;;;21.00
17142;BMP180;32805;53.556;9.944;2023-05-27T11:34:47;102497.00;;;20.90
17142;BMP180;32805;53.556;9.944;2023-05-27T11:37:15;102489.00;;;20.70
17142;BMP180;32805;53.556;9.944;2023-05-27T11:39:49;102488.00;;;20.60
17142;BMP180;32805;53.556;9.944;2023-05-27T11:42:22;102487.00;;;20.70
17142;BMP180;32805;53.556;9.944;2023-05-27T11:44:51;102472.00;;;20.80
17142;BMP180;32805;53.556;9.944;2023-05-27T11:47:20;102479.00;;;20.80
17142;BMP180;32805;53.556;9.944;2023-05-27T11:49:48;102469.00;;;20.90
17142;BMP180;32805;53.556;9.944;2023-05-27T11:52:17;102463.00;;;21.00
17142;BMP180;32805;53.556;9.944;2023-05-27T11:54:48;102452.00;;;20.80
17142;BMP180;32805;53.556;9.944;2023-05-27T11:57:25;102465.00;;;20.60
17142;BMP180;32805;53.556;9.944;2023-05-27T11:59:53;102437.00;;;20.40
17142;BMP180;32805;53.556;9.944;2023-05-27T12:02:21;102443.00;;;20.40
17142;BMP180;32805;53.556;9.944;2023-05-27T12:04:49;102442.00;;;20.50
17142;BMP180;32805;53.556;9.944;2023-05-27T12:07:17;102444.00;;;20.80
17142;BMP180;32805;53.556;9.944;2023-05-27T12:09:47;102435.00;;;20.80
17142;BMP180;32805;53.556;9.944;2023-05-27T12:12:16;102431.00;;;21.00
17142;BMP180;32805;53.556;9.944;2023-05-27T12:14:47;102435.00;;;21.20
17142;BMP180;32805;53.556;9.944;2023-05-27T12:17:15;102430.00;;;21.30
17142;BMP180;32805;53.556;9.944;2023-05-27T12:19:43;102426.00;;;21.30
17142;BMP180;32805;53.556;9.944;2023-05-27T12:22:11;102421.00;;;21.20
17142;BMP180;32805;53.556;9.944;2023-05-27T12:24:39;102422.00;;;21.50
17142;BMP180;32805;53.556;9.944;2023-05-27T12:27:07;102415.00;;;21.70
17142;BMP180;32805;53.556;9.944;2023-05-27T12:29:35;102400.00;;;21.90
17142;BMP180;32805;53.556;9.944;2023-05-27T12:32:04;102409.00;;;22.00
17142;BMP180;32805;53.556;9.944;2023-05-27T12:34:32;102410.00;;;22.00
17142;BMP180;32805;53.556;9.944;2023-05-27T12:37:00;102400.00;;;22.00
17142;BMP180;32805;53.556;9.944;2023-05-27T12:39:27;102402.00;;;21.80
17142;BMP180;32805;53.556;9.944;2023-05-27T12:41:55;102398.00;;;22.00
17142;BMP180;32805;53.556;9.944;2023-05-27T12:44:23;102397.00;;;22.00
17142;BMP180;32805;53.556;9.944;2023-05-27T12:46:51;102395.00;;;22.10
17142;BMP180;32805;53.556;9.944;2023-05-27T12:49:20;102368.00;;;22.00
17142;BMP180;32805;53.556;9.944;2023-05-27T12:51:48;102375.00;;;22.20
17142;BMP180;32805;53.556;9.944;2023-05-27T12:54:15;102367.00;;;21.90
17142;BMP180;32805;53.556;9.944;2023-05-27T12:56:43;102367.00;;;21.80
17142;BMP180;32805;53.556;9.944;2023-05-27T12:59:11;102370.00;;;21.60
17142;BMP180;32805;53.556;9.944;2023-05-27T13:01:38;102368.00;;;21.60
17142;BMP180;32805;53.556;9.944;2023-05-27T13:04:06;102363.00;;;21.50
17142;BMP180;32805;53.556;9.944;2023-05-27T13:06:36;102362.00;;;21.40
17142;BMP180;32805;53.556;9.944;2023-05-27T13:09:04;102354.00;;;21.50
17142;BMP180;32805;53.556;9.944;2023-05-27T13:11:33;102355.00;;;21.50
17142;BMP180;32805;53.556;9.944;2023-05-27T13:14:02;102348.00;;;21.60
17142;BMP180;32805;53.556;9.944;2023-05-27T13:16:29;102353.00;;;21.80
17142;BMP180;32805;53.556;9.944;2023-05-27T13:18:57;102349.00;;;21.80
17142;BMP180;32805;53.556;9.944;2023-05-27T13:21:25;102344.00;;;21.70
17142;BMP180;32805;53.556;9.944;2023-05-27T13:23:55;102341.00;;;21.80
17142;BMP180;32805;53.556;9.944;2023-05-27T13:26:23;102332.00;;;21.90
17142;BMP180;32805;53.556;9.944;2023-05-27T13:28:51;102340.00;;;22.10
17142;BMP180;32805;53.556;9.944;2023-05-27T13:31:19;102339.00;;;22.10
17142;BMP180;32805;53.556;9.944;2023-05-27T13:33:47;102330.00;;;22.20
17142;BMP180;32805;53.556;9.944;2023-05-27T13:36:15;102323.00;;;22.20
17142;BMP180;32805;53.556;9.944;2023-05-27T13:38:42;102310.00;;;22.20
17142;BMP180;32805;53.556;9.944;2023-05-27T13:41:11;102322.00;;;22.20
17142;BMP180;32805;53.556;9.944;2023-05-27T13:43:39;102325.00;;;22.20
17142;BMP180;32805;53.556;9.944;2023-05-27T13:46:07;102311.00;;;22.40
17142;BMP180;32805;53.556;9.944;2023-05-27T13:48:35;102304.00;;;22.40
17142;BMP180;32805;53.556;9.944;2023-05-27T13:51:02;102303.00;;;22.40
17142;BMP180;32805;53.556;9.944;2023-05-27T13:53:30;102300.00;;;22.40
17142;BMP180;32805;53.556;9.944;2023-05-27T13:55:58;102298.00;;;22.50
17142;BMP180;32805;53.556;9.944;2023-05-27T13:58:27;102301.00;;;22.60
17142;BMP180;32805;53.556;9.944;2023-05-27T14:00:56;102280.00;;;22.50
17142;BMP180;32805;53.556;9.944;2023-05-27T14:03:24;102290.00;;;22.50
17142;BMP180;32805;53.556;9.944;2023-05-27T14:05:52;102277.00;;;22.70
17142;BMP180;32805;53.556;9.944;2023-05-27T14:08:19;102283.00;;;22.90
17142;BMP180;32805;53.556;9.944;2023-05-27T14:10:47;102278.00;;;23.20
17142;BMP180;32805;53.556;9.944;2023-05-27T14:13:15;102284.00;;;23.70
17142;BMP180;32805;53.556;9.944;2023-05-27T14:15:44;102273.00;;;24.40
17142;BMP180;32805;53.556;9.944;2023-05-27T14:18:12;102276.00;;;25.60